sensor_id;sensor_type;location;lat;lon;timestamp;pressure;altitude;pressure_sealevel;temperature;humidity
28027;BME280;15344;52.342;-1.290;2022-07-21T00:01:06;100662.24;;;20.29;70.24
28027;BME280;15344;52.342;-1.290;2022-07-21T00:03:31;100660.33;;;18.42;74.10
28027;BME280;15344;52.342;-1.290;2022-07-21T00:05:56;100663.49;;;18.83;74.79
28027;BME280;15344;52.342;-1.290;2022-07-21T00:08:21;100664.64;;;18.15;75.04
28027;BME280;15344;52.342;-1.290;2022-07-21T00:10:47;100667.67;;;19.37;72.16
28027;BME280;15344;52.342;-1.290;2022-07-21T00:13:13;100667.72;;;17.99;75.16
28027;BME280;15344;52.342;-1.290;2022-07-21T00:15:37;100663.84;;;18.44;76.50
28027;BME280;15344;52.342;-1.290;2022-07-21T00:18:02;100669.26;;;18.68;75.02
28027;BME280;15344;52.342;-1.290;2022-07-21T00:20:27;100670.38;;;19.32;71.27
28027;BME280;15344;52.342;-1.290;2022-07-21T00:22:52;100673.87;;;19.63;71.43
28027;BME280;15344;52.342;-1.290;2022-07-21T00:25:18;100671.10;;;18.00;74.54
28027;BME280;15344;52.342;-1.290;2022-07-21T00:27:43;100672.10;;;19.61;70.45
28027;BME280;15344;52.342;-1.290;2022-07-21T00:30:10;100674.36;;;19.51;71.59
28027;BME280;15344;52.342;-1.290;2022-07-21T00:32:33;100674.27;;;19.06;73.14
28027;BME280;15344;52.342;-1.290;2022-07-21T00:34:59;100669.79;;;20.08;69.33
28027;BME280;15344;52.342;-1.290;2022-07-21T00:37:23;100667.33;;;19.92;67.92
28027;BME280;15344;52.342;-1.290;2022-07-21T00:39:48;100674.23;;;20.29;67.26
28027;BME280;15344;52.342;-1.290;2022-07-21T00:42:20;100673.31;;;20.39;66.90
28027;BME280;15344;52.342;-1.290;2022-07-21T00:44:39;100677.87;;;19.51;69.44
28027;BME280;15344;52.342;-1.290;2022-07-21T00:47:04;100680.78;;;19.01;70.33
28027;BME280;15344;52.342;-1.290;2022-07-21T00:49:29;100680.10;;;19.11;70.93
28027;BME280;15344;52.342;-1.290;2022-07-21T00:51:54;100675.75;;;20.30;67.23
28027;BME280;15344;52.342;-1.290;2022-07-21T00:54:19;100668.51;;;20.03;66.54
28027;BME280;15344;52.342;-1.290;2022-07-21T00:56:45;100673.46;;;21.52;63.15
28027;BME280;15344;52.342;-1.290;2022-07-21T00:59:11;100677.58;;;21.27;64.80
28027;BME280;15344;52.342;-1.290;2022-07-21T01:01:35;100676.78;;;20.69;65.97
28027;BME280;15344;52.342;-1.290;2022-07-21T01:04:00;100675.81;;;21.40;64.40
28027;BME280;15344;52.342;-1.290;2022-07-21T01:06:25;100676.50;;;18.34;72.91
28027;BME280;15344;52.342;-1.290;2022-07-21T01:08:50;100678.37;;;18.96;71.65
28027;BME280;15344;52.342;-1.290;2022-07-21T01:11:16;100677.72;;;20.00;68.68
28027;BME280;15344;52.342;-1.290;2022-07-21T01:13:41;100675.72;;;18.29;74.97
28027;BME280;15344;52.342;-1.290;2022-07-21T01:16:07;100678.14;;;19.36;70.06
28027;BME280;15344;52.342;-1.290;2022-07-21T01:18:31;100676.91;;;18.64;71.76
28027;BME280;15344;52.342;-1.290;2022-07-21T01:21:02;100682.65;;;19.70;69.07
28027;BME280;15344;52.342;-1.290;2022-07-21T01:23:22;100683.80;;;19.55;70.62
28027;BME280;15344;52.342;-1.290;2022-07-21T01:25:47;100682.79;;;19.04;72.17
28027;BME280;15344;52.342;-1.290;2022-07-21T01:28:13;100683.53;;;19.26;70.23
28027;BME280;15344;52.342;-1.290;2022-07-21T01:30:38;100683.60;;;18.48;71.87
28027;BME280;15344;52.342;-1.290;2022-07-21T01:33:03;100684.70;;;21.08;66.24
28027;BME280;15344;52.342;-1.290;2022-07-21T01:35:28;100685.68;;;20.41;66.79
28027;BME280;15344;52.342;-1.290;2022-07-21T01:37:54;100690.22;;;21.37;64.69
28027;BME280;15344;52.342;-1.290;2022-07-21T01:40:19;100691.05;;;21.64;61.78
28027;BME280;15344;52.342;-1.290;2022-07-21T01:42:44;100695.85;;;22.27;62.25
28027;BME280;15344;52.342;-1.290;2022-07-21T01:45:09;100695.64;;;21.38;61.86
28027;BME280;15344;52.342;-1.290;2022-07-21T01:47:34;100695.15;;;21.94;62.86
28027;BME280;15344;52.342;-1.290;2022-07-21T01:50:00;100693.56;;;21.87;62.08
28027;BME280;15344;52.342;-1.290;2022-07-21T01:52:24;100693.09;;;19.99;65.81
28027;BME280;15344;52.342;-1.290;2022-07-21T01:54:50;100695.22;;;20.21;67.17
28027;BME280;15344;52.342;-1.290;2022-07-21T01:57:16;100699.56;;;19.79;66.54
28027;BME280;15344;52.342;-1.290;2022-07-21T01:59:40;100702.45;;;19.13;69.76
28027;BME280;15344;52.342;-1.290;2022-07-21T02:02:05;100701.46;;;21.40;63.96
28027;BME280;15344;52.342;-1.290;2022-07-21T02:04:31;100701.36;;;20.93;64.70
28027;BME280;15344;52.342;-1.290;2022-07-21T02:06:55;100699.89;;;21.01;64.24
28027;BME280;15344;52.342;-1.290;2022-07-21T02:09:20;100699.72;;;21.21;62.06
28027;BME280;15344;52.342;-1.290;2022-07-21T02:11:46;100697.19;;;21.96;61.64
28027;BME280;15344;52.342;-1.290;2022-07-21T02:14:12;100698.15;;;21.91;62.05
28027;BME280;15344;52.342;-1.290;2022-07-21T02:16:36;100700.90;;;22.13;60.52
28027;BME280;15344;52.342;-1.290;2022-07-21T02:19:01;100696.63;;;20.81;64.18
28027;BME280;15344;52.342;-1.290;2022-07-21T02:21:26;100694.68;;;21.84;61.45
28027;BME280;15344;52.342;-1.290;2022-07-21T02:23:52;100688.64;;;21.57;62.69
28027;BME280;15344;52.342;-1.290;2022-07-21T02:26:17;100689.71;;;20.53;64.28
28027;BME280;15344;52.342;-1.290;2022-07-21T02:28:42;100689.18;;;20.07;67.04
28027;BME280;15344;52.342;-1.290;2022-07-21T02:31:07;100688.60;;;19.73;69.62
28027;BME280;15344;52.342;-1.290;2022-07-21T02:33:32;100694.43;;;18.99;70.55
28027;BME280;15344;52.342;-1.290;2022-07-21T02:35:57;100697.40;;;20.25;68.85
28027;BME280;15344;52.342;-1.290;2022-07-21T02:38:22;100693.41;;;20.20;67.33
28027;BME280;15344;52.342;-1.290;2022-07-21T02:40:47;100694.57;;;20.24;68.71
28027;BME280;15344;52.342;-1.290;2022-07-21T02:43:13;100691.23;;;20.87;67.10
28027;BME280;15344;52.342;-1.290;2022-07-21T02:45:38;100693.33;;;21.25;64.62
28027;BME280;15344;52.342;-1.290;2022-07-21T02:48:05;100695.78;;;18.77;73.99
28027;BME280;15344;52.342;-1.290;2022-07-21T02:50:31;100695.92;;;20.09;69.94
28027;BME280;15344;52.342;-1.290;2022-07-21T02:52:54;100698.34;;;20.14;69.65
28027;BME280;15344;52.342;-1.290;2022-07-21T02:55:19;100697.15;;;20.48;68.48
28027;BME280;15344;52.342;-1.290;2022-07-21T02:57:44;100695.69;;;20.71;67.46
28027;BME280;15344;52.342;-1.290;2022-07-21T03:00:12;100700.17;;;21.11;67.02
28027;BME280;15344;52.342;-1.290;2022-07-21T03:02:34;100706.26;;;20.58;69.04
28027;BME280;15344;52.342;-1.290;2022-07-21T03:05:00;100711.21;;;19.86;69.79
28027;BME280;15344;52.342;-1.290;2022-07-21T03:07:24;100705.42;;;21.13;66.41
28027;BME280;15344;52.342;-1.290;2022-07-21T03:09:49;100706.70;;;20.45;67.72
28027;BME280;15344;52.342;-1.290;2022-07-21T03:12:15;100702.07;;;20.34;67.38
28027;BME280;15344;52.342;-1.290;2022-07-21T03:14:40;100701.44;;;20.91;67.01
28027;BME280;15344;52.342;-1.290;2022-07-21T03:17:05;100697.51;;;20.48;67.93
28027;BME280;15344;52.342;-1.290;2022-07-21T03:19:30;100702.46;;;19.25;71.69
28027;BME280;15344;52.342;-1.290;2022-07-21T03:21:56;100700.95;;;20.09;70.53
28027;BME280;15344;52.342;-1.290;2022-07-21T03:24:21;100698.38;;;20.74;68.54
28027;BME280;15344;52.342;-1.290;2022-07-21T03:26:46;100697.32;;;21.11;65.94
28027;BME280;15344;52.342;-1.290;2022-07-21T03:29:12;100699.48;;;21.09;67.51
28027;BME280;15344;52.342;-1.290;2022-07-21T03:31:36;100706.90;;;19.88;71.98
28027;BME280;15344;52.342;-1.290;2022-07-21T03:34:02;100707.24;;;18.66;78.14
28027;BME280;15344;52.342;-1.290;2022-07-21T03:36:27;100710.01;;;19.85;73.18
28027;BME280;15344;52.342;-1.290;2022-07-21T03:38:52;100707.49;;;20.02;72.54
28027;BME280;15344;52.342;-1.290;2022-07-21T03:41:17;100709.98;;;20.10;73.18
28027;BME280;15344;52.342;-1.290;2022-07-21T03:43:42;100708.29;;;19.88;72.56
28027;BME280;15344;52.342;-1.290;2022-07-21T03:46:07;100711.03;;;19.86;73.54
28027;BME280;15344;52.342;-1.290;2022-07-21T03:48:32;100706.18;;;19.78;70.92
28027;BME280;15344;52.342;-1.290;2022-07-21T03:50:58;100709.64;;;19.39;73.71
28027;BME280;15344;52.342;-1.290;2022-07-21T03:53:23;100708.38;;;19.17;76.00
28027;BME280;15344;52.342;-1.290;2022-07-21T03:55:48;100712.39;;;19.15;76.67
28027;BME280;15344;52.342;-1.290;2022-07-21T03:58:14;100711.46;;;18.75;76.86
28027;BME280;15344;52.342;-1.290;2022-07-21T04:00:40;100713.66;;;19.49;75.52
28027;BME280;15344;52.342;-1.290;2022-07-21T04:03:04;100713.54;;;19.30;75.10
28027;BME280;15344;52.342;-1.290;2022-07-21T04:05:29;100713.82;;;19.79;73.16
28027;BME280;15344;52.342;-1.290;2022-07-21T04:07:55;100712.83;;;19.44;73.85
28027;BME280;15344;52.342;-1.290;2022-07-21T04:10:21;100711.78;;;19.74;71.41
28027;BME280;15344;52.342;-1.290;2022-07-21T04:12:45;100705.26;;;18.20;78.53
28027;BME280;15344;52.342;-1.290;2022-07-21T04:15:10;100708.57;;;18.44;78.32
28027;BME280;15344;52.342;-1.290;2022-07-21T04:17:35;100711.72;;;17.82;81.04
28027;BME280;15344;52.342;-1.290;2022-07-21T04:20:00;100716.53;;;18.30;79.61
28027;BME280;15344;52.342;-1.290;2022-07-21T04:22:25;100718.90;;;19.51;76.81
28027;BME280;15344;52.342;-1.290;2022-07-21T04:24:50;100721.07;;;20.41;72.62
28027;BME280;15344;52.342;-1.290;2022-07-21T04:27:15;100723.80;;;19.01;75.73
28027;BME280;15344;52.342;-1.290;2022-07-21T04:29:40;100723.49;;;18.91;77.86
28027;BME280;15344;52.342;-1.290;2022-07-21T04:32:06;100729.11;;;20.37;73.73
28027;BME280;15344;52.342;-1.290;2022-07-21T04:34:31;100730.25;;;18.30;79.61
28027;BME280;15344;52.342;-1.290;2022-07-21T04:36:56;100732.18;;;18.65;79.29
28027;BME280;15344;52.342;-1.290;2022-07-21T04:39:21;100734.00;;;19.30;78.80
28027;BME280;15344;52.342;-1.290;2022-07-21T04:41:46;100740.64;;;19.44;77.44
28027;BME280;15344;52.342;-1.290;2022-07-21T04:44:12;100745.36;;;19.19;78.20
28027;BME280;15344;52.342;-1.290;2022-07-21T04:46:36;100748.36;;;19.80;77.34
28027;BME280;15344;52.342;-1.290;2022-07-21T04:49:02;100749.35;;;18.49;80.55
28027;BME280;15344;52.342;-1.290;2022-07-21T04:51:27;100745.38;;;19.06;78.27
28027;BME280;15344;52.342;-1.290;2022-07-21T04:53:52;100746.46;;;19.26;76.79
28027;BME280;15344;52.342;-1.290;2022-07-21T04:56:17;100749.43;;;19.20;77.32
28027;BME280;15344;52.342;-1.290;2022-07-21T04:58:42;100755.97;;;20.34;74.89
28027;BME280;15344;52.342;-1.290;2022-07-21T05:01:07;100753.16;;;18.78;78.98
28027;BME280;15344;52.342;-1.290;2022-07-21T05:03:33;100758.05;;;18.72;81.69
28027;BME280;15344;52.342;-1.290;2022-07-21T05:05:58;100763.39;;;17.66;86.00
28027;BME280;15344;52.342;-1.290;2022-07-21T05:08:23;100763.66;;;18.57;82.63
28027;BME280;15344;52.342;-1.290;2022-07-21T05:10:48;100764.65;;;19.33;80.07
28027;BME280;15344;52.342;-1.290;2022-07-21T05:13:14;100769.72;;;19.89;76.65
28027;BME280;15344;52.342;-1.290;2022-07-21T05:15:39;100776.01;;;20.14;75.80
28027;BME280;15344;52.342;-1.290;2022-07-21T05:18:07;100775.87;;;19.70;76.67
28027;BME280;15344;52.342;-1.290;2022-07-21T05:20:30;100774.68;;;19.67;75.94
28027;BME280;15344;52.342;-1.290;2022-07-21T05:22:55;100770.70;;;18.25;81.04
28027;BME280;15344;52.342;-1.290;2022-07-21T05:25:21;100768.32;;;18.30;78.71
28027;BME280;15344;52.342;-1.290;2022-07-21T05:27:45;100769.80;;;19.36;79.60
28027;BME280;15344;52.342;-1.290;2022-07-21T05:30:11;100775.97;;;19.59;76.61
28027;BME280;15344;52.342;-1.290;2022-07-21T05:32:36;100776.52;;;19.50;76.47
28027;BME280;15344;52.342;-1.290;2022-07-21T05:35:01;100783.63;;;18.55;82.63
28027;BME280;15344;52.342;-1.290;2022-07-21T05:37:27;100781.84;;;19.08;80.67
28027;BME280;15344;52.342;-1.290;2022-07-21T05:39:51;100790.32;;;20.43;74.84
28027;BME280;15344;52.342;-1.290;2022-07-21T05:42:17;100796.25;;;19.27;74.83
28027;BME280;15344;52.342;-1.290;2022-07-21T05:44:42;100794.69;;;21.53;70.42
28027;BME280;15344;52.342;-1.290;2022-07-21T05:47:07;100796.62;;;20.71;72.44
28027;BME280;15344;52.342;-1.290;2022-07-21T05:49:32;100794.55;;;20.31;74.12
28027;BME280;15344;52.342;-1.290;2022-07-21T05:51:57;100790.09;;;20.73;72.01
28027;BME280;15344;52.342;-1.290;2022-07-21T05:54:22;100790.59;;;20.51;73.13
28027;BME280;15344;52.342;-1.290;2022-07-21T05:56:48;100793.34;;;20.54;73.57
28027;BME280;15344;52.342;-1.290;2022-07-21T05:59:13;100794.32;;;20.65;72.19
28027;BME280;15344;52.342;-1.290;2022-07-21T06:01:38;100800.59;;;20.47;73.44
28027;BME280;15344;52.342;-1.290;2022-07-21T06:04:03;100795.94;;;19.07;79.12
28027;BME280;15344;52.342;-1.290;2022-07-21T06:06:28;100803.05;;;20.21;75.22
28027;BME280;15344;52.342;-1.290;2022-07-21T06:08:53;100806.86;;;20.05;75.23
28027;BME280;15344;52.342;-1.290;2022-07-21T06:11:20;100808.29;;;19.60;74.18
28027;BME280;15344;52.342;-1.290;2022-07-21T06:13:44;100810.94;;;20.96;70.32
28027;BME280;15344;52.342;-1.290;2022-07-21T06:16:10;100815.60;;;20.60;71.03
28027;BME280;15344;52.342;-1.290;2022-07-21T06:18:34;100820.87;;;19.61;74.87
28027;BME280;15344;52.342;-1.290;2022-07-21T06:20:59;100819.98;;;19.71;75.20
28027;BME280;15344;52.342;-1.290;2022-07-21T06:23:24;100822.90;;;19.74;72.37
28027;BME280;15344;52.342;-1.290;2022-07-21T06:25:50;100821.62;;;18.42;80.43
28027;BME280;15344;52.342;-1.290;2022-07-21T06:28:15;100820.70;;;18.71;78.40
28027;BME280;15344;52.342;-1.290;2022-07-21T06:30:40;100825.28;;;20.97;72.58
28027;BME280;15344;52.342;-1.290;2022-07-21T06:33:06;100826.45;;;19.94;73.64
28027;BME280;15344;52.342;-1.290;2022-07-21T06:35:30;100827.74;;;19.52;76.27
28027;BME280;15344;52.342;-1.290;2022-07-21T06:37:55;100831.88;;;19.62;74.72
28027;BME280;15344;52.342;-1.290;2022-07-21T06:40:21;100839.02;;;19.81;73.78
28027;BME280;15344;52.342;-1.290;2022-07-21T06:42:46;100838.87;;;19.49;75.38
28027;BME280;15344;52.342;-1.290;2022-07-21T06:45:11;100843.77;;;18.54;79.26
28027;BME280;15344;52.342;-1.290;2022-07-21T06:47:36;100840.96;;;19.18;76.03
28027;BME280;15344;52.342;-1.290;2022-07-21T06:50:02;100842.84;;;18.93;77.66
28027;BME280;15344;52.342;-1.290;2022-07-21T06:52:26;100845.19;;;18.11;78.37
28027;BME280;15344;52.342;-1.290;2022-07-21T06:54:52;100851.02;;;18.30;80.46
28027;BME280;15344;52.342;-1.290;2022-07-21T06:57:16;100855.90;;;18.47;80.57
28027;BME280;15344;52.342;-1.290;2022-07-21T06:59:42;100850.81;;;19.51;77.68
28027;BME280;15344;52.342;-1.290;2022-07-21T07:02:07;100861.17;;;20.14;74.55
28027;BME280;15344;52.342;-1.290;2022-07-21T07:04:32;100861.88;;;19.28;75.96
28027;BME280;15344;52.342;-1.290;2022-07-21T07:06:58;100866.59;;;20.12;72.61
28027;BME280;15344;52.342;-1.290;2022-07-21T07:09:23;100866.19;;;20.44;69.49
28027;BME280;15344;52.342;-1.290;2022-07-21T07:11:48;100872.01;;;21.64;68.24
28027;BME280;15344;52.342;-1.290;2022-07-21T07:14:13;100870.50;;;20.69;70.18
28027;BME280;15344;52.342;-1.290;2022-07-21T07:16:38;100870.26;;;21.20;68.62
28027;BME280;15344;52.342;-1.290;2022-07-21T07:19:04;100872.31;;;20.62;69.55
28027;BME280;15344;52.342;-1.290;2022-07-21T07:21:28;100874.42;;;20.22;72.15
28027;BME280;15344;52.342;-1.290;2022-07-21T07:23:55;100869.03;;;19.24;75.51
28027;BME280;15344;52.342;-1.290;2022-07-21T07:26:19;100876.03;;;19.06;75.62
28027;BME280;15344;52.342;-1.290;2022-07-21T07:28:44;100879.43;;;19.60;74.28
28027;BME280;15344;52.342;-1.290;2022-07-21T07:31:09;100886.19;;;21.49;68.01
28027;BME280;15344;52.342;-1.290;2022-07-21T07:33:35;100887.97;;;20.25;72.48
28027;BME280;15344;52.342;-1.290;2022-07-21T07:36:01;100890.80;;;19.76;72.43
28027;BME280;15344;52.342;-1.290;2022-07-21T07:38:25;100889.65;;;19.51;73.98
28027;BME280;15344;52.342;-1.290;2022-07-21T07:40:50;100890.03;;;18.80;76.96
28027;BME280;15344;52.342;-1.290;2022-07-21T07:43:15;100893.27;;;20.13;74.59
28027;BME280;15344;52.342;-1.290;2022-07-21T07:45:41;100894.37;;;19.95;73.29
28027;BME280;15344;52.342;-1.290;2022-07-21T07:48:06;100892.03;;;19.51;77.56
28027;BME280;15344;52.342;-1.290;2022-07-21T07:50:31;100891.11;;;19.47;76.81
28027;BME280;15344;52.342;-1.290;2022-07-21T07:52:56;100893.11;;;19.00;81.09
28027;BME280;15344;52.342;-1.290;2022-07-21T07:55:21;100896.64;;;19.72;77.20
28027;BME280;15344;52.342;-1.290;2022-07-21T07:57:46;100900.38;;;20.31;75.97
28027;BME280;15344;52.342;-1.290;2022-07-21T08:00:15;100903.06;;;20.05;77.52
28027;BME280;15344;52.342;-1.290;2022-07-21T08:02:36;100906.55;;;18.81;81.42
28027;BME280;15344;52.342;-1.290;2022-07-21T08:05:02;100909.00;;;20.27;76.26
28027;BME280;15344;52.342;-1.290;2022-07-21T08:07:27;100910.96;;;21.17;73.48
28027;BME280;15344;52.342;-1.290;2022-07-21T08:09:52;100913.68;;;20.72;74.05
28027;BME280;15344;52.342;-1.290;2022-07-21T08:12:17;100913.07;;;20.08;75.55
28027;BME280;15344;52.342;-1.290;2022-07-21T08:14:42;100917.96;;;20.70;73.64
28027;BME280;15344;52.342;-1.290;2022-07-21T08:17:08;100916.53;;;20.90;75.22
28027;BME280;15344;52.342;-1.290;2022-07-21T08:19:34;100913.74;;;19.08;82.89
28027;BME280;15344;52.342;-1.290;2022-07-21T08:21:59;100915.35;;;21.13;75.61
28027;BME280;15344;52.342;-1.290;2022-07-21T08:24:24;100917.44;;;20.60;77.73
28027;BME280;15344;52.342;-1.290;2022-07-21T08:26:49;100917.24;;;20.64;77.11
28027;BME280;15344;52.342;-1.290;2022-07-21T08:29:15;100920.69;;;20.98;76.69
28027;BME280;15344;52.342;-1.290;2022-07-21T08:31:39;100921.52;;;20.85;74.41
28027;BME280;15344;52.342;-1.290;2022-07-21T08:34:04;100917.15;;;19.32;80.54
28027;BME280;15344;52.342;-1.290;2022-07-21T08:36:30;100916.29;;;19.37;80.93
28027;BME280;15344;52.342;-1.290;2022-07-21T08:38:55;100921.74;;;21.43;74.46
28027;BME280;15344;52.342;-1.290;2022-07-21T08:41:20;100920.90;;;20.35;76.23
28027;BME280;15344;52.342;-1.290;2022-07-21T08:43:45;100918.11;;;19.19;81.61
28027;BME280;15344;52.342;-1.290;2022-07-21T08:46:10;100921.86;;;19.95;79.31
28027;BME280;15344;52.342;-1.290;2022-07-21T08:48:36;100919.90;;;20.20;80.61
28027;BME280;15344;52.342;-1.290;2022-07-21T08:51:00;100922.36;;;21.02;77.43
28027;BME280;15344;52.342;-1.290;2022-07-21T08:53:26;100926.63;;;21.14;76.62
28027;BME280;15344;52.342;-1.290;2022-07-21T08:55:52;100927.12;;;20.23;77.78
28027;BME280;15344;52.342;-1.290;2022-07-21T08:58:16;100932.67;;;21.34;77.55
28027;BME280;15344;52.342;-1.290;2022-07-21T09:00:43;100932.89;;;19.41;83.99
28027;BME280;15344;52.342;-1.290;2022-07-21T09:03:12;100937.43;;;20.73;80.06
28027;BME280;15344;52.342;-1.290;2022-07-21T09:05:31;100939.22;;;20.24;80.61
28027;BME280;15344;52.342;-1.290;2022-07-21T09:07:57;100939.83;;;19.68;82.43
28027;BME280;15344;52.342;-1.290;2022-07-21T09:10:23;100944.54;;;18.68;86.65
28027;BME280;15344;52.342;-1.290;2022-07-21T09:12:50;100945.37;;;21.19;76.72
28027;BME280;15344;52.342;-1.290;2022-07-21T09:15:14;100950.57;;;21.53;75.89
28027;BME280;15344;52.342;-1.290;2022-07-21T09:17:38;100945.78;;;20.15;78.77
28027;BME280;15344;52.342;-1.290;2022-07-21T09:20:04;100950.60;;;20.69;77.53
28027;BME280;15344;52.342;-1.290;2022-07-21T09:22:28;100954.15;;;21.07;77.37
28027;BME280;15344;52.342;-1.290;2022-07-21T09:24:53;100953.49;;;19.31;81.23
28027;BME280;15344;52.342;-1.290;2022-07-21T09:27:21;100955.94;;;19.69;80.41
28027;BME280;15344;52.342;-1.290;2022-07-21T09:29:46;100962.86;;;19.06;85.81
28027;BME280;15344;52.342;-1.290;2022-07-21T09:32:15;100965.27;;;19.91;83.60
28027;BME280;15344;52.342;-1.290;2022-07-21T09:34:35;100966.25;;;19.12;84.49
28027;BME280;15344;52.342;-1.290;2022-07-21T09:37:00;100961.43;;;20.05;82.24
28027;BME280;15344;52.342;-1.290;2022-07-21T09:41:50;100963.01;;;19.92;84.39
28027;BME280;15344;52.342;-1.290;2022-07-21T09:46:40;100968.45;;;20.04;84.28
28027;BME280;15344;52.342;-1.290;2022-07-21T09:49:05;100966.45;;;18.92;87.22
28027;BME280;15344;52.342;-1.290;2022-07-21T09:51:32;100968.82;;;19.66;85.07
28027;BME280;15344;52.342;-1.290;2022-07-21T09:53:59;100969.39;;;19.15;86.78
28027;BME280;15344;52.342;-1.290;2022-07-21T09:56:22;100965.75;;;20.16;83.07
28027;BME280;15344;52.342;-1.290;2022-07-21T09:58:46;100970.68;;;21.44;79.21
28027;BME280;15344;52.342;-1.290;2022-07-21T10:01:11;100968.77;;;19.54;84.43
28027;BME280;15344;52.342;-1.290;2022-07-21T10:03:37;100971.75;;;19.75;84.86
28027;BME280;15344;52.342;-1.290;2022-07-21T10:06:01;100973.48;;;19.90;84.92
28027;BME280;15344;52.342;-1.290;2022-07-21T10:08:26;100975.97;;;19.60;87.57
28027;BME280;15344;52.342;-1.290;2022-07-21T10:10:51;100977.33;;;20.96;81.29
28027;BME280;15344;52.342;-1.290;2022-07-21T10:13:17;100974.57;;;19.66;85.63
28027;BME280;15344;52.342;-1.290;2022-07-21T10:15:42;100978.69;;;21.64;78.35
28027;BME280;15344;52.342;-1.290;2022-07-21T10:18:07;100976.05;;;20.45;80.58
28027;BME280;15344;52.342;-1.290;2022-07-21T10:20:34;100978.40;;;20.89;81.21
28027;BME280;15344;52.342;-1.290;2022-07-21T10:23:05;100982.91;;;19.58;84.01
28027;BME280;15344;52.342;-1.290;2022-07-21T10:25:23;100987.07;;;19.52;85.45
28027;BME280;15344;52.342;-1.290;2022-07-21T10:30:13;100982.10;;;20.61;83.39
28027;BME280;15344;52.342;-1.290;2022-07-21T10:32:48;100982.90;;;20.09;84.69
28027;BME280;15344;52.342;-1.290;2022-07-21T10:39:53;100985.30;;;19.39;84.56
28027;BME280;15344;52.342;-1.290;2022-07-21T10:42:19;100983.71;;;19.94;83.68
28027;BME280;15344;52.342;-1.290;2022-07-21T10:44:46;100985.31;;;18.62;88.76
28027;BME280;15344;52.342;-1.290;2022-07-21T10:47:12;100979.79;;;19.63;83.81
28027;BME280;15344;52.342;-1.290;2022-07-21T10:51:59;100982.75;;;18.86;88.95
28027;BME280;15344;52.342;-1.290;2022-07-21T10:54:25;100986.40;;;18.05;94.80
28027;BME280;15344;52.342;-1.290;2022-07-21T10:59:16;100993.83;;;19.07;90.37
28027;BME280;15344;52.342;-1.290;2022-07-21T11:01:40;100992.48;;;20.28;87.37
28027;BME280;15344;52.342;-1.290;2022-07-21T11:04:09;101000.92;;;19.94;87.57
28027;BME280;15344;52.342;-1.290;2022-07-21T11:06:32;101005.99;;;20.93;81.24
28027;BME280;15344;52.342;-1.290;2022-07-21T11:11:23;101000.14;;;20.70;82.61
28027;BME280;15344;52.342;-1.290;2022-07-21T11:16:11;101000.26;;;20.10;84.61
28027;BME280;15344;52.342;-1.290;2022-07-21T11:18:41;101005.49;;;20.90;81.92
28027;BME280;15344;52.342;-1.290;2022-07-21T11:21:08;101002.99;;;20.76;81.99
28027;BME280;15344;52.342;-1.290;2022-07-21T11:23:35;100998.82;;;19.85;87.24
28027;BME280;15344;52.342;-1.290;2022-07-21T11:25:52;100996.14;;;21.28;85.02
28027;BME280;15344;52.342;-1.290;2022-07-21T11:28:17;100996.66;;;20.95;83.33
28027;BME280;15344;52.342;-1.290;2022-07-21T11:30:42;100990.42;;;22.39;78.35
28027;BME280;15344;52.342;-1.290;2022-07-21T11:33:07;100990.87;;;20.25;85.17
28027;BME280;15344;52.342;-1.290;2022-07-21T11:35:37;100989.11;;;20.16;85.48
28027;BME280;15344;52.342;-1.290;2022-07-21T11:38:03;100986.19;;;21.29;85.99
28027;BME280;15344;52.342;-1.290;2022-07-21T11:40:23;100982.84;;;19.71;87.68
28027;BME280;15344;52.342;-1.290;2022-07-21T11:42:51;100985.98;;;21.24;84.73
28027;BME280;15344;52.342;-1.290;2022-07-21T11:45:15;100985.05;;;20.43;86.62
28027;BME280;15344;52.342;-1.290;2022-07-21T11:47:39;100988.37;;;22.23;78.96
28027;BME280;15344;52.342;-1.290;2022-07-21T11:50:07;100980.76;;;22.13;79.58
28027;BME280;15344;52.342;-1.290;2022-07-21T11:52:32;100984.43;;;21.96;80.39
28027;BME280;15344;52.342;-1.290;2022-07-21T11:54:55;100979.65;;;22.30;78.70
28027;BME280;15344;52.342;-1.290;2022-07-21T11:57:22;100975.91;;;22.03;78.04
28027;BME280;15344;52.342;-1.290;2022-07-21T11:59:46;100974.62;;;21.90;81.57
28027;BME280;15344;52.342;-1.290;2022-07-21T12:02:12;100970.74;;;23.09;76.78
28027;BME280;15344;52.342;-1.290;2022-07-21T12:04:39;100971.91;;;23.07;75.17
28027;BME280;15344;52.342;-1.290;2022-07-21T12:07:02;100968.40;;;22.98;73.78
28027;BME280;15344;52.342;-1.290;2022-07-21T12:09:26;100970.29;;;22.35;77.45
28027;BME280;15344;52.342;-1.290;2022-07-21T12:11:51;100975.43;;;24.59;72.12
28027;BME280;15344;52.342;-1.290;2022-07-21T12:14:16;100976.44;;;24.03;69.25
28027;BME280;15344;52.342;-1.290;2022-07-21T12:16:48;100977.41;;;23.01;72.50
28027;BME280;15344;52.342;-1.290;2022-07-21T12:19:09;100975.91;;;23.39;70.57
28027;BME280;15344;52.342;-1.290;2022-07-21T12:23:56;100975.43;;;22.78;73.31
28027;BME280;15344;52.342;-1.290;2022-07-21T12:26:22;100979.87;;;22.36;74.57
28027;BME280;15344;52.342;-1.290;2022-07-21T12:28:48;100979.72;;;23.24;74.35
28027;BME280;15344;52.342;-1.290;2022-07-21T12:31:15;100977.55;;;23.29;71.10
28027;BME280;15344;52.342;-1.290;2022-07-21T12:33:38;100976.10;;;22.84;71.89
28027;BME280;15344;52.342;-1.290;2022-07-21T12:36:05;100974.87;;;22.97;73.22
28027;BME280;15344;52.342;-1.290;2022-07-21T12:38:35;100975.89;;;23.11;70.11
28027;BME280;15344;52.342;-1.290;2022-07-21T12:40:57;100976.12;;;24.14;69.61
28027;BME280;15344;52.342;-1.290;2022-07-21T12:43:19;100974.60;;;23.13;72.13
28027;BME280;15344;52.342;-1.290;2022-07-21T12:45:48;100972.62;;;24.27;68.48
28027;BME280;15344;52.342;-1.290;2022-07-21T12:48:08;100972.07;;;23.05;70.92
28027;BME280;15344;52.342;-1.290;2022-07-21T12:50:33;100968.43;;;22.27;72.78
28027;BME280;15344;52.342;-1.290;2022-07-21T12:52:58;100969.61;;;23.94;68.31